Terminal Aerodrome Forecast
Issued by NWS Charleston, WV

Current Version | Previous Version | Graphics & Text | Print | Product List | Glossary On
Versions: 1 2 3 4 5 6 7 8 9 10 11 12 13 14 15 16 17 18 19 20 21 22 23 24 25 26 27 28 29 30 31
644
FTUS41 KRLX 212358
TAFPKB
TAF
KPKB 212358Z 2200/2224 14005KT P6SM SCT050
     FM220300 17003KT P6SM VCSH BKN040
     FM220900 00000KT 4SM BR BKN050
     FM221200 19003KT P6SM BKN040
     FM221800 22005KT P6SM SHRA VCTS BKN040CB=

USA.gov is the U.S. government's official web portal to all federal, state and local government web resources and services.